sensor_id;sensor_type;location;lat;lon;timestamp;P1;durP1;ratioP1;P2;durP2;ratioP2
39750;SDS011;37579;51.074;17.004;2023-03-07T00:01:37;4.50;;;3.10;;
39750;SDS011;37579;51.074;17.004;2023-03-07T00:04:03;5.13;;;3.53;;
39750;SDS011;37579;51.074;17.004;2023-03-07T00:06:29;5.03;;;3.35;;
39750;SDS011;37579;51.074;17.004;2023-03-07T00:08:56;4.30;;;2.88;;
39750;SDS011;37579;51.074;17.004;2023-03-07T00:11:24;4.95;;;2.95;;
39750;SDS011;37579;51.074;17.004;2023-03-07T00:13:50;4.32;;;3.00;;
39750;SDS011;37579;51.074;17.004;2023-03-07T00:16:18;4.93;;;3.22;;
39750;SDS011;37579;51.074;17.004;2023-03-07T00:18:46;6.25;;;3.53;;
39750;SDS011;37579;51.074;17.004;2023-03-07T00:21:13;4.47;;;3.45;;
39750;SDS011;37579;51.074;17.004;2023-03-07T00:23:41;4.50;;;3.00;;
39750;SDS011;37579;51.074;17.004;2023-03-07T00:26:10;3.45;;;2.92;;
39750;SDS011;37579;51.074;17.004;2023-03-07T00:28:40;4.10;;;2.80;;
39750;SDS011;37579;51.074;17.004;2023-03-07T00:31:08;4.57;;;3.28;;
39750;SDS011;37579;51.074;17.004;2023-03-07T00:33:35;5.10;;;3.17;;
39750;SDS011;37579;51.074;17.004;2023-03-07T00:36:06;4.72;;;3.28;;
39750;SDS011;37579;51.074;17.004;2023-03-07T00:38:42;4.18;;;3.22;;
39750;SDS011;37579;51.074;17.004;2023-03-07T00:41:09;5.40;;;3.38;;
39750;SDS011;37579;51.074;17.004;2023-03-07T00:43:41;4.68;;;3.25;;
39750;SDS011;37579;51.074;17.004;2023-03-07T00:46:07;5.53;;;3.17;;
39750;SDS011;37579;51.074;17.004;2023-03-07T00:48:34;3.85;;;2.97;;
39750;SDS011;37579;51.074;17.004;2023-03-07T00:51:02;4.68;;;3.33;;
39750;SDS011;37579;51.074;17.004;2023-03-07T00:53:29;5.25;;;3.58;;
39750;SDS011;37579;51.074;17.004;2023-03-07T00:55:59;4.18;;;3.15;;
39750;SDS011;37579;51.074;17.004;2023-03-07T00:58:29;5.35;;;3.17;;
39750;SDS011;37579;51.074;17.004;2023-03-07T01:00:57;4.95;;;3.20;;
39750;SDS011;37579;51.074;17.004;2023-03-07T01:03:24;4.18;;;3.08;;
39750;SDS011;37579;51.074;17.004;2023-03-07T01:05:51;4.00;;;3.20;;
39750;SDS011;37579;51.074;17.004;2023-03-07T01:08:17;5.72;;;3.20;;
39750;SDS011;37579;51.074;17.004;2023-03-07T01:10:44;3.85;;;3.25;;
39750;SDS011;37579;51.074;17.004;2023-03-07T01:13:10;3.88;;;3.13;;
39750;SDS011;37579;51.074;17.004;2023-03-07T01:15:36;5.63;;;3.17;;
39750;SDS011;37579;51.074;17.004;2023-03-07T01:18:06;5.03;;;3.38;;
39750;SDS011;37579;51.074;17.004;2023-03-07T01:20:34;5.78;;;3.22;;
39750;SDS011;37579;51.074;17.004;2023-03-07T01:23:00;3.78;;;3.03;;
39750;SDS011;37579;51.074;17.004;2023-03-07T01:25:27;4.93;;;3.42;;
39750;SDS011;37579;51.074;17.004;2023-03-07T01:27:54;4.38;;;3.28;;
39750;SDS011;37579;51.074;17.004;2023-03-07T01:30:24;5.05;;;3.58;;
39750;SDS011;37579;51.074;17.004;2023-03-07T01:32:57;3.78;;;2.92;;
39750;SDS011;37579;51.074;17.004;2023-03-07T01:35:24;5.18;;;3.30;;
39750;SDS011;37579;51.074;17.004;2023-03-07T01:37:53;4.32;;;3.15;;
39750;SDS011;37579;51.074;17.004;2023-03-07T01:40:20;4.47;;;3.50;;
39750;SDS011;37579;51.074;17.004;2023-03-07T01:42:48;5.00;;;3.47;;
39750;SDS011;37579;51.074;17.004;2023-03-07T01:47:45;5.05;;;3.20;;
39750;SDS011;37579;51.074;17.004;2023-03-07T01:50:12;4.25;;;3.28;;
39750;SDS011;37579;51.074;17.004;2023-03-07T01:52:42;4.75;;;3.33;;
39750;SDS011;37579;51.074;17.004;2023-03-07T01:55:21;3.88;;;3.13;;
39750;SDS011;37579;51.074;17.004;2023-03-07T01:57:54;4.43;;;3.23;;
39750;SDS011;37579;51.074;17.004;2023-03-07T02:00:23;5.35;;;3.55;;
39750;SDS011;37579;51.074;17.004;2023-03-07T02:03:05;4.53;;;3.40;;
39750;SDS011;37579;51.074;17.004;2023-03-07T02:05:57;4.28;;;3.28;;
39750;SDS011;37579;51.074;17.004;2023-03-07T02:08:26;4.30;;;3.13;;
39750;SDS011;37579;51.074;17.004;2023-03-07T02:10:55;5.03;;;3.25;;
39750;SDS011;37579;51.074;17.004;2023-03-07T02:13:20;5.07;;;3.50;;
39750;SDS011;37579;51.074;17.004;2023-03-07T02:15:46;8.85;;;4.22;;
39750;SDS011;37579;51.074;17.004;2023-03-07T02:18:16;5.90;;;3.38;;
39750;SDS011;37579;51.074;17.004;2023-03-07T02:20:47;4.20;;;3.50;;
39750;SDS011;37579;51.074;17.004;2023-03-07T02:28:51;4.95;;;3.55;;
39750;SDS011;37579;51.074;17.004;2023-03-07T02:31:18;5.07;;;3.83;;
39750;SDS011;37579;51.074;17.004;2023-03-07T02:33:44;5.10;;;3.60;;
39750;SDS011;37579;51.074;17.004;2023-03-07T02:36:15;5.10;;;3.60;;
39750;SDS011;37579;51.074;17.004;2023-03-07T02:38:57;4.60;;;3.22;;
39750;SDS011;37579;51.074;17.004;2023-03-07T02:41:27;4.20;;;3.33;;
39750;SDS011;37579;51.074;17.004;2023-03-07T02:43:58;4.82;;;3.67;;
39750;SDS011;37579;51.074;17.004;2023-03-07T02:46:24;4.95;;;3.40;;
39750;SDS011;37579;51.074;17.004;2023-03-07T02:48:50;4.88;;;3.42;;
39750;SDS011;37579;51.074;17.004;2023-03-07T02:51:16;5.00;;;3.97;;
39750;SDS011;37579;51.074;17.004;2023-03-07T02:53:43;4.60;;;3.70;;
39750;SDS011;37579;51.074;17.004;2023-03-07T02:56:10;5.15;;;3.60;;
39750;SDS011;37579;51.074;17.004;2023-03-07T02:58:37;5.72;;;3.88;;
39750;SDS011;37579;51.074;17.004;2023-03-07T03:01:03;5.95;;;4.13;;
39750;SDS011;37579;51.074;17.004;2023-03-07T03:03:29;6.50;;;4.30;;
39750;SDS011;37579;51.074;17.004;2023-03-07T03:05:55;5.45;;;3.65;;
39750;SDS011;37579;51.074;17.004;2023-03-07T03:08:21;4.07;;;3.67;;
39750;SDS011;37579;51.074;17.004;2023-03-07T03:10:51;4.65;;;3.88;;
39750;SDS011;37579;51.074;17.004;2023-03-07T03:13:19;5.03;;;3.90;;
39750;SDS011;37579;51.074;17.004;2023-03-07T03:15:45;5.07;;;3.90;;
39750;SDS011;37579;51.074;17.004;2023-03-07T03:18:11;5.03;;;3.65;;
39750;SDS011;37579;51.074;17.004;2023-03-07T03:20:38;5.55;;;4.10;;
39750;SDS011;37579;51.074;17.004;2023-03-07T03:23:05;5.38;;;3.90;;
39750;SDS011;37579;51.074;17.004;2023-03-07T03:25:31;5.43;;;4.05;;
39750;SDS011;37579;51.074;17.004;2023-03-07T03:27:56;4.55;;;3.65;;
39750;SDS011;37579;51.074;17.004;2023-03-07T03:30:24;4.70;;;3.75;;
39750;SDS011;37579;51.074;17.004;2023-03-07T03:32:52;5.40;;;4.32;;
39750;SDS011;37579;51.074;17.004;2023-03-07T03:35:20;5.07;;;3.95;;
39750;SDS011;37579;51.074;17.004;2023-03-07T03:37:47;5.07;;;4.20;;
39750;SDS011;37579;51.074;17.004;2023-03-07T03:40:13;5.20;;;4.22;;
39750;SDS011;37579;51.074;17.004;2023-03-07T03:42:42;5.72;;;4.25;;
39750;SDS011;37579;51.074;17.004;2023-03-07T03:45:09;5.80;;;4.35;;
39750;SDS011;37579;51.074;17.004;2023-03-07T03:47:36;6.03;;;4.53;;
39750;SDS011;37579;51.074;17.004;2023-03-07T03:50:02;5.43;;;3.70;;
39750;SDS011;37579;51.074;17.004;2023-03-07T03:52:29;6.07;;;4.30;;
39750;SDS011;37579;51.074;17.004;2023-03-07T03:54:54;5.45;;;4.50;;
39750;SDS011;37579;51.074;17.004;2023-03-07T03:57:21;5.15;;;3.97;;
39750;SDS011;37579;51.074;17.004;2023-03-07T03:59:47;6.25;;;4.32;;
39750;SDS011;37579;51.074;17.004;2023-03-07T04:02:14;5.03;;;3.97;;
39750;SDS011;37579;51.074;17.004;2023-03-07T04:04:40;12.63;;;4.38;;
39750;SDS011;37579;51.074;17.004;2023-03-07T04:07:06;4.70;;;4.18;;
39750;SDS011;37579;51.074;17.004;2023-03-07T04:09:32;4.63;;;3.88;;
39750;SDS011;37579;51.074;17.004;2023-03-07T04:11:58;6.03;;;4.07;;
39750;SDS011;37579;51.074;17.004;2023-03-07T04:14:24;5.47;;;4.22;;
39750;SDS011;37579;51.074;17.004;2023-03-07T04:16:50;4.68;;;3.90;;
39750;SDS011;37579;51.074;17.004;2023-03-07T04:19:16;5.22;;;4.28;;
39750;SDS011;37579;51.074;17.004;2023-03-07T04:21:42;5.22;;;4.30;;
39750;SDS011;37579;51.074;17.004;2023-03-07T04:24:09;5.25;;;4.07;;
39750;SDS011;37579;51.074;17.004;2023-03-07T04:26:35;5.15;;;3.97;;
39750;SDS011;37579;51.074;17.004;2023-03-07T04:29:01;4.72;;;4.00;;
39750;SDS011;37579;51.074;17.004;2023-03-07T04:31:31;5.30;;;3.95;;
39750;SDS011;37579;51.074;17.004;2023-03-07T04:34:00;5.35;;;4.38;;
39750;SDS011;37579;51.074;17.004;2023-03-07T04:36:25;5.60;;;4.00;;
39750;SDS011;37579;51.074;17.004;2023-03-07T04:38:51;5.47;;;3.88;;
39750;SDS011;37579;51.074;17.004;2023-03-07T04:41:19;4.72;;;4.20;;
39750;SDS011;37579;51.074;17.004;2023-03-07T04:43:50;5.15;;;4.10;;
39750;SDS011;37579;51.074;17.004;2023-03-07T04:46:17;4.68;;;3.72;;
39750;SDS011;37579;51.074;17.004;2023-03-07T04:48:43;5.40;;;4.20;;
39750;SDS011;37579;51.074;17.004;2023-03-07T04:51:10;5.35;;;4.30;;
39750;SDS011;37579;51.074;17.004;2023-03-07T04:53:36;5.72;;;4.10;;
39750;SDS011;37579;51.074;17.004;2023-03-07T04:56:02;5.50;;;4.18;;
39750;SDS011;37579;51.074;17.004;2023-03-07T04:58:31;7.18;;;5.07;;
39750;SDS011;37579;51.074;17.004;2023-03-07T05:00:59;5.07;;;3.83;;
39750;SDS011;37579;51.074;17.004;2023-03-07T05:03:26;6.53;;;4.50;;
39750;SDS011;37579;51.074;17.004;2023-03-07T05:05:53;4.97;;;4.35;;
39750;SDS011;37579;51.074;17.004;2023-03-07T05:08:19;5.93;;;4.57;;
39750;SDS011;37579;51.074;17.004;2023-03-07T05:10:46;4.90;;;4.03;;
39750;SDS011;37579;51.074;17.004;2023-03-07T05:13:12;6.22;;;4.35;;
39750;SDS011;37579;51.074;17.004;2023-03-07T05:15:38;4.63;;;3.80;;
39750;SDS011;37579;51.074;17.004;2023-03-07T05:18:04;5.25;;;4.15;;
39750;SDS011;37579;51.074;17.004;2023-03-07T05:20:31;4.97;;;4.22;;
39750;SDS011;37579;51.074;17.004;2023-03-07T05:22:58;5.13;;;4.15;;
39750;SDS011;37579;51.074;17.004;2023-03-07T05:25:24;6.35;;;4.28;;
39750;SDS011;37579;51.074;17.004;2023-03-07T05:27:50;5.03;;;4.10;;
39750;SDS011;37579;51.074;17.004;2023-03-07T05:30:16;6.30;;;5.07;;
39750;SDS011;37579;51.074;17.004;2023-03-07T05:32:42;4.75;;;3.72;;
39750;SDS011;37579;51.074;17.004;2023-03-07T05:35:10;5.10;;;4.15;;
39750;SDS011;37579;51.074;17.004;2023-03-07T05:37:37;5.25;;;3.70;;
39750;SDS011;37579;51.074;17.004;2023-03-07T05:40:04;5.55;;;3.90;;
39750;SDS011;37579;51.074;17.004;2023-03-07T05:42:34;6.85;;;4.03;;
39750;SDS011;37579;51.074;17.004;2023-03-07T05:45:00;4.78;;;3.80;;
39750;SDS011;37579;51.074;17.004;2023-03-07T05:47:28;5.07;;;4.15;;
39750;SDS011;37579;51.074;17.004;2023-03-07T05:49:54;5.10;;;3.97;;
39750;SDS011;37579;51.074;17.004;2023-03-07T05:52:21;5.22;;;4.30;;
39750;SDS011;37579;51.074;17.004;2023-03-07T05:54:47;5.07;;;4.00;;
39750;SDS011;37579;51.074;17.004;2023-03-07T05:57:12;6.68;;;4.25;;
39750;SDS011;37579;51.074;17.004;2023-03-07T05:59:39;4.65;;;3.50;;
39750;SDS011;37579;51.074;17.004;2023-03-07T06:02:05;5.03;;;3.75;;
39750;SDS011;37579;51.074;17.004;2023-03-07T06:04:31;5.00;;;3.70;;
39750;SDS011;37579;51.074;17.004;2023-03-07T06:06:56;4.60;;;3.80;;
39750;SDS011;37579;51.074;17.004;2023-03-07T06:09:24;5.97;;;4.00;;
39750;SDS011;37579;51.074;17.004;2023-03-07T06:11:52;5.93;;;3.53;;
39750;SDS011;37579;51.074;17.004;2023-03-07T06:14:18;6.80;;;3.95;;
39750;SDS011;37579;51.074;17.004;2023-03-07T06:16:44;4.72;;;3.63;;
39750;SDS011;37579;51.074;17.004;2023-03-07T06:19:10;4.72;;;3.40;;
39750;SDS011;37579;51.074;17.004;2023-03-07T06:21:37;5.10;;;3.75;;
39750;SDS011;37579;51.074;17.004;2023-03-07T06:24:03;4.32;;;3.33;;
39750;SDS011;37579;51.074;17.004;2023-03-07T06:26:29;5.00;;;3.35;;
39750;SDS011;37579;51.074;17.004;2023-03-07T06:28:55;4.28;;;3.83;;
39750;SDS011;37579;51.074;17.004;2023-03-07T06:31:24;7.25;;;3.53;;
39750;SDS011;37579;51.074;17.004;2023-03-07T06:33:50;7.07;;;3.47;;
39750;SDS011;37579;51.074;17.004;2023-03-07T06:36:18;5.63;;;3.80;;
39750;SDS011;37579;51.074;17.004;2023-03-07T06:38:48;4.90;;;3.20;;
39750;SDS011;37579;51.074;17.004;2023-03-07T06:41:14;8.45;;;3.80;;
39750;SDS011;37579;51.074;17.004;2023-03-07T06:43:41;6.28;;;3.80;;
39750;SDS011;37579;51.074;17.004;2023-03-07T06:46:07;6.57;;;4.20;;
39750;SDS011;37579;51.074;17.004;2023-03-07T06:48:37;7.32;;;3.58;;
39750;SDS011;37579;51.074;17.004;2023-03-07T06:51:07;6.90;;;4.32;;
39750;SDS011;37579;51.074;17.004;2023-03-07T06:53:34;5.97;;;3.83;;
39750;SDS011;37579;51.074;17.004;2023-03-07T06:56:01;7.95;;;3.88;;
39750;SDS011;37579;51.074;17.004;2023-03-07T06:58:29;6.15;;;4.13;;
39750;SDS011;37579;51.074;17.004;2023-03-07T07:00:55;5.40;;;4.13;;
39750;SDS011;37579;51.074;17.004;2023-03-07T07:03:21;6.85;;;3.92;;
39750;SDS011;37579;51.074;17.004;2023-03-07T07:05:47;6.57;;;4.18;;
39750;SDS011;37579;51.074;17.004;2023-03-07T07:08:13;7.65;;;3.70;;
39750;SDS011;37579;51.074;17.004;2023-03-07T07:10:39;5.47;;;4.20;;
39750;SDS011;37579;51.074;17.004;2023-03-07T07:13:05;5.88;;;3.50;;
39750;SDS011;37579;51.074;17.004;2023-03-07T07:15:31;6.07;;;3.45;;
39750;SDS011;37579;51.074;17.004;2023-03-07T07:17:59;8.32;;;3.53;;
39750;SDS011;37579;51.074;17.004;2023-03-07T07:20:25;5.68;;;3.80;;
39750;SDS011;37579;51.074;17.004;2023-03-07T07:22:51;7.00;;;3.58;;
39750;SDS011;37579;51.074;17.004;2023-03-07T07:25:18;3.83;;;3.15;;
39750;SDS011;37579;51.074;17.004;2023-03-07T07:27:44;5.32;;;3.72;;
39750;SDS011;37579;51.074;17.004;2023-03-07T07:30:10;7.00;;;3.78;;
39750;SDS011;37579;51.074;17.004;2023-03-07T07:32:38;4.68;;;3.60;;
39750;SDS011;37579;51.074;17.004;2023-03-07T07:35:04;4.10;;;3.33;;
39750;SDS011;37579;51.074;17.004;2023-03-07T07:37:30;5.05;;;3.47;;
39750;SDS011;37579;51.074;17.004;2023-03-07T07:39:56;6.22;;;3.47;;
39750;SDS011;37579;51.074;17.004;2023-03-07T07:42:22;5.30;;;3.28;;
39750;SDS011;37579;51.074;17.004;2023-03-07T07:45:01;5.38;;;3.55;;
39750;SDS011;37579;51.074;17.004;2023-03-07T07:47:28;5.88;;;3.38;;
39750;SDS011;37579;51.074;17.004;2023-03-07T07:49:54;6.43;;;3.70;;
39750;SDS011;37579;51.074;17.004;2023-03-07T07:52:20;9.77;;;3.95;;
39750;SDS011;37579;51.074;17.004;2023-03-07T07:54:46;6.15;;;3.20;;
39750;SDS011;37579;51.074;17.004;2023-03-07T07:57:12;7.13;;;3.80;;
39750;SDS011;37579;51.074;17.004;2023-03-07T07:59:38;5.45;;;3.63;;
39750;SDS011;37579;51.074;17.004;2023-03-07T08:02:06;11.95;;;3.50;;
39750;SDS011;37579;51.074;17.004;2023-03-07T08:04:35;5.22;;;3.60;;
39750;SDS011;37579;51.074;17.004;2023-03-07T08:07:01;7.88;;;4.00;;
39750;SDS011;37579;51.074;17.004;2023-03-07T08:09:27;6.15;;;3.70;;
39750;SDS011;37579;51.074;17.004;2023-03-07T08:11:53;8.77;;;3.55;;
39750;SDS011;37579;51.074;17.004;2023-03-07T08:14:18;7.10;;;3.67;;
39750;SDS011;37579;51.074;17.004;2023-03-07T08:16:44;7.50;;;3.35;;
39750;SDS011;37579;51.074;17.004;2023-03-07T08:19:10;4.95;;;3.58;;
39750;SDS011;37579;51.074;17.004;2023-03-07T08:21:36;7.15;;;3.20;;
39750;SDS011;37579;51.074;17.004;2023-03-07T08:24:02;6.00;;;3.45;;
39750;SDS011;37579;51.074;17.004;2023-03-07T08:26:28;5.30;;;3.35;;
39750;SDS011;37579;51.074;17.004;2023-03-07T08:28:54;5.55;;;3.28;;
39750;SDS011;37579;51.074;17.004;2023-03-07T08:31:21;6.50;;;3.42;;
39750;SDS011;37579;51.074;17.004;2023-03-07T08:33:48;5.95;;;3.65;;
39750;SDS011;37579;51.074;17.004;2023-03-07T08:36:15;5.45;;;3.58;;
39750;SDS011;37579;51.074;17.004;2023-03-07T08:38:41;5.70;;;3.40;;
39750;SDS011;37579;51.074;17.004;2023-03-07T08:41:07;5.80;;;3.60;;
39750;SDS011;37579;51.074;17.004;2023-03-07T08:43:34;6.47;;;4.00;;
39750;SDS011;37579;51.074;17.004;2023-03-07T08:46:01;9.50;;;4.78;;
39750;SDS011;37579;51.074;17.004;2023-03-07T08:48:28;10.07;;;5.38;;
39750;SDS011;37579;51.074;17.004;2023-03-07T08:50:54;9.82;;;4.88;;
39750;SDS011;37579;51.074;17.004;2023-03-07T08:53:20;8.65;;;4.78;;
39750;SDS011;37579;51.074;17.004;2023-03-07T08:55:46;9.82;;;5.05;;
39750;SDS011;37579;51.074;17.004;2023-03-07T08:58:12;8.27;;;4.80;;
39750;SDS011;37579;51.074;17.004;2023-03-07T09:00:38;8.40;;;4.97;;
39750;SDS011;37579;51.074;17.004;2023-03-07T09:03:04;8.90;;;4.45;;
39750;SDS011;37579;51.074;17.004;2023-03-07T09:05:30;8.02;;;4.60;;
39750;SDS011;37579;51.074;17.004;2023-03-07T09:07:56;8.43;;;3.88;;
39750;SDS011;37579;51.074;17.004;2023-03-07T09:10:23;11.07;;;4.47;;
39750;SDS011;37579;51.074;17.004;2023-03-07T09:12:51;9.05;;;4.28;;
39750;SDS011;37579;51.074;17.004;2023-03-07T09:15:17;11.57;;;8.85;;
39750;SDS011;37579;51.074;17.004;2023-03-07T09:17:43;13.48;;;9.77;;
39750;SDS011;37579;51.074;17.004;2023-03-07T09:20:09;10.07;;;8.60;;
39750;SDS011;37579;51.074;17.004;2023-03-07T09:22:40;8.90;;;7.22;;
39750;SDS011;37579;51.074;17.004;2023-03-07T09:25:06;6.40;;;5.43;;
39750;SDS011;37579;51.074;17.004;2023-03-07T09:27:32;6.80;;;5.15;;
39750;SDS011;37579;51.074;17.004;2023-03-07T09:29:58;6.55;;;5.10;;
39750;SDS011;37579;51.074;17.004;2023-03-07T09:32:24;6.28;;;4.45;;
39750;SDS011;37579;51.074;17.004;2023-03-07T09:34:50;5.45;;;3.58;;
39750;SDS011;37579;51.074;17.004;2023-03-07T09:37:17;8.98;;;3.90;;
39750;SDS011;37579;51.074;17.004;2023-03-07T09:39:43;5.30;;;2.92;;
39750;SDS011;37579;51.074;17.004;2023-03-07T09:45:02;6.47;;;2.75;;
39750;SDS011;37579;51.074;17.004;2023-03-07T09:50:38;8.73;;;2.90;;
39750;SDS011;37579;51.074;17.004;2023-03-07T09:56:42;9.63;;;2.63;;
39750;SDS011;37579;51.074;17.004;2023-03-07T09:59:12;5.72;;;2.70;;
39750;SDS011;37579;51.074;17.004;2023-03-07T10:01:49;7.75;;;3.38;;
39750;SDS011;37579;51.074;17.004;2023-03-07T10:04:20;13.63;;;3.28;;
39750;SDS011;37579;51.074;17.004;2023-03-07T10:06:53;16.10;;;3.28;;
39750;SDS011;37579;51.074;17.004;2023-03-07T10:09:22;10.35;;;3.58;;
39750;SDS011;37579;51.074;17.004;2023-03-07T10:20:28;9.05;;;3.25;;
39750;SDS011;37579;51.074;17.004;2023-03-07T10:23:23;10.52;;;3.70;;
39750;SDS011;37579;51.074;17.004;2023-03-07T10:28:49;8.15;;;2.92;;
39750;SDS011;37579;51.074;17.004;2023-03-07T10:31:24;10.68;;;3.55;;
39750;SDS011;37579;51.074;17.004;2023-03-07T10:34:17;7.90;;;3.22;;
39750;SDS011;37579;51.074;17.004;2023-03-07T10:36:49;7.22;;;2.88;;
39750;SDS011;37579;51.074;17.004;2023-03-07T10:41:56;11.90;;;4.10;;
39750;SDS011;37579;51.074;17.004;2023-03-07T10:44:22;8.70;;;3.25;;
39750;SDS011;37579;51.074;17.004;2023-03-07T10:46:50;7.10;;;2.88;;
39750;SDS011;37579;51.074;17.004;2023-03-07T10:49:24;10.43;;;3.58;;
39750;SDS011;37579;51.074;17.004;2023-03-07T10:54:34;9.27;;;3.17;;
39750;SDS011;37579;51.074;17.004;2023-03-07T10:59:34;5.10;;;2.58;;
39750;SDS011;37579;51.074;17.004;2023-03-07T11:02:02;5.35;;;2.70;;
39750;SDS011;37579;51.074;17.004;2023-03-07T11:04:47;8.00;;;2.78;;
39750;SDS011;37579;51.074;17.004;2023-03-07T11:07:32;5.88;;;2.60;;
39750;SDS011;37579;51.074;17.004;2023-03-07T11:10:00;8.38;;;2.60;;
39750;SDS011;37579;51.074;17.004;2023-03-07T11:12:46;7.10;;;2.50;;
39750;SDS011;37579;51.074;17.004;2023-03-07T11:15:19;7.25;;;2.75;;
39750;SDS011;37579;51.074;17.004;2023-03-07T11:17:49;6.35;;;2.53;;
39750;SDS011;37579;51.074;17.004;2023-03-07T11:20:29;8.50;;;3.67;;
39750;SDS011;37579;51.074;17.004;2023-03-07T11:23:13;6.90;;;2.50;;
39750;SDS011;37579;51.074;17.004;2023-03-07T11:25:42;7.82;;;2.15;;
39750;SDS011;37579;51.074;17.004;2023-03-07T11:31:10;8.90;;;2.40;;
39750;SDS011;37579;51.074;17.004;2023-03-07T11:34:10;5.47;;;2.30;;
39750;SDS011;37579;51.074;17.004;2023-03-07T11:36:46;7.93;;;2.75;;
39750;SDS011;37579;51.074;17.004;2023-03-07T11:39:40;4.80;;;2.30;;
39750;SDS011;37579;51.074;17.004;2023-03-07T11:42:32;3.63;;;2.05;;
39750;SDS011;37579;51.074;17.004;2023-03-07T11:50:54;5.75;;;2.40;;
39750;SDS011;37579;51.074;17.004;2023-03-07T11:55:55;5.97;;;2.60;;
39750;SDS011;37579;51.074;17.004;2023-03-07T12:01:55;6.30;;;2.25;;
39750;SDS011;37579;51.074;17.004;2023-03-07T12:07:37;4.32;;;2.50;;
39750;SDS011;37579;51.074;17.004;2023-03-07T12:13:26;5.82;;;2.35;;
39750;SDS011;37579;51.074;17.004;2023-03-07T12:16:10;5.85;;;2.35;;
39750;SDS011;37579;51.074;17.004;2023-03-07T12:21:39;51.30;;;26.58;;
39750;SDS011;37579;51.074;17.004;2023-03-07T12:24:13;61.08;;;30.50;;
39750;SDS011;37579;51.074;17.004;2023-03-07T12:29:37;65.38;;;30.02;;
39750;SDS011;37579;51.074;17.004;2023-03-07T12:32:21;58.90;;;27.52;;
39750;SDS011;37579;51.074;17.004;2023-03-07T12:34:52;58.03;;;27.63;;
39750;SDS011;37579;51.074;17.004;2023-03-07T12:40:09;59.00;;;27.48;;
39750;SDS011;37579;51.074;17.004;2023-03-07T12:42:48;59.33;;;27.75;;
39750;SDS011;37579;51.074;17.004;2023-03-07T12:45:26;51.22;;;25.80;;
39750;SDS011;37579;51.074;17.004;2023-03-07T12:48:06;54.83;;;25.27;;
39750;SDS011;37579;51.074;17.004;2023-03-07T12:53:33;46.30;;;21.08;;
39750;SDS011;37579;51.074;17.004;2023-03-07T12:59:11;29.95;;;15.85;;
39750;SDS011;37579;51.074;17.004;2023-03-07T13:01:47;32.92;;;15.48;;
39750;SDS011;37579;51.074;17.004;2023-03-07T13:07:21;31.27;;;14.00;;
39750;SDS011;37579;51.074;17.004;2023-03-07T13:09:52;29.35;;;13.32;;
39750;SDS011;37579;51.074;17.004;2023-03-07T13:17:56;27.17;;;12.02;;
39750;SDS011;37579;51.074;17.004;2023-03-07T13:33:39;19.95;;;10.02;;
39750;SDS011;37579;51.074;17.004;2023-03-07T13:36:29;22.02;;;10.63;;
39750;SDS011;37579;51.074;17.004;2023-03-07T13:38:55;24.73;;;10.52;;
39750;SDS011;37579;51.074;17.004;2023-03-07T13:44:28;20.13;;;9.20;;
39750;SDS011;37579;51.074;17.004;2023-03-07T13:47:01;19.75;;;9.50;;
39750;SDS011;37579;51.074;17.004;2023-03-07T13:49:39;16.40;;;8.63;;
39750;SDS011;37579;51.074;17.004;2023-03-07T13:52:39;16.90;;;8.70;;
39750;SDS011;37579;51.074;17.004;2023-03-07T13:55:01;14.20;;;7.97;;
39750;SDS011;37579;51.074;17.004;2023-03-07T13:57:32;14.55;;;7.97;;
39750;SDS011;37579;51.074;17.004;2023-03-07T14:00:02;16.98;;;7.53;;
39750;SDS011;37579;51.074;17.004;2023-03-07T14:02:36;14.57;;;6.50;;
39750;SDS011;37579;51.074;17.004;2023-03-07T14:05:05;12.10;;;6.22;;
39750;SDS011;37579;51.074;17.004;2023-03-07T14:07:33;13.95;;;6.90;;
39750;SDS011;37579;51.074;17.004;2023-03-07T14:10:07;12.80;;;6.30;;
39750;SDS011;37579;51.074;17.004;2023-03-07T14:12:57;12.93;;;6.85;;
39750;SDS011;37579;51.074;17.004;2023-03-07T14:16:02;12.10;;;6.15;;
39750;SDS011;37579;51.074;17.004;2023-03-07T14:18:42;12.57;;;6.07;;
39750;SDS011;37579;51.074;17.004;2023-03-07T14:21:17;13.20;;;5.97;;
39750;SDS011;37579;51.074;17.004;2023-03-07T14:26:54;10.20;;;4.95;;
39750;SDS011;37579;51.074;17.004;2023-03-07T14:29:23;10.95;;;5.38;;
39750;SDS011;37579;51.074;17.004;2023-03-07T14:31:53;10.05;;;5.03;;
39750;SDS011;37579;51.074;17.004;2023-03-07T14:34:34;10.40;;;5.05;;
39750;SDS011;37579;51.074;17.004;2023-03-07T14:50:42;13.73;;;4.68;;
39750;SDS011;37579;51.074;17.004;2023-03-07T14:53:13;9.95;;;4.50;;
39750;SDS011;37579;51.074;17.004;2023-03-07T14:55:49;8.25;;;4.72;;
39750;SDS011;37579;51.074;17.004;2023-03-07T14:58:17;10.02;;;4.95;;
39750;SDS011;37579;51.074;17.004;2023-03-07T15:00:55;8.23;;;4.45;;
39750;SDS011;37579;51.074;17.004;2023-03-07T15:03:22;10.85;;;4.25;;
39750;SDS011;37579;51.074;17.004;2023-03-07T15:05:49;9.32;;;4.20;;
39750;SDS011;37579;51.074;17.004;2023-03-07T15:08:27;7.65;;;3.88;;
39750;SDS011;37579;51.074;17.004;2023-03-07T15:10:57;10.90;;;4.00;;
39750;SDS011;37579;51.074;17.004;2023-03-07T15:16:22;10.02;;;3.95;;
39750;SDS011;37579;51.074;17.004;2023-03-07T15:21:52;8.90;;;3.75;;
39750;SDS011;37579;51.074;17.004;2023-03-07T15:26:55;8.82;;;3.72;;
39750;SDS011;37579;51.074;17.004;2023-03-07T15:29:23;5.80;;;3.38;;
39750;SDS011;37579;51.074;17.004;2023-03-07T15:31:52;8.10;;;3.50;;
39750;SDS011;37579;51.074;17.004;2023-03-07T15:34:37;6.97;;;3.90;;
39750;SDS011;37579;51.074;17.004;2023-03-07T15:39:53;8.45;;;3.72;;
39750;SDS011;37579;51.074;17.004;2023-03-07T15:42:21;6.80;;;3.40;;
39750;SDS011;37579;51.074;17.004;2023-03-07T15:45:00;5.57;;;3.30;;
39750;SDS011;37579;51.074;17.004;2023-03-07T15:47:28;7.15;;;3.70;;
39750;SDS011;37579;51.074;17.004;2023-03-07T15:49:58;6.95;;;3.30;;
39750;SDS011;37579;51.074;17.004;2023-03-07T15:55:00;5.25;;;3.22;;
39750;SDS011;37579;51.074;17.004;2023-03-07T15:57:30;6.30;;;3.40;;
39750;SDS011;37579;51.074;17.004;2023-03-07T16:00:03;8.10;;;4.10;;
39750;SDS011;37579;51.074;17.004;2023-03-07T16:04:56;3.92;;;2.70;;
39750;SDS011;37579;51.074;17.004;2023-03-07T16:07:22;6.35;;;3.35;;
39750;SDS011;37579;51.074;17.004;2023-03-07T16:09:48;5.85;;;2.97;;
39750;SDS011;37579;51.074;17.004;2023-03-07T16:12:15;6.90;;;3.17;;
39750;SDS011;37579;51.074;17.004;2023-03-07T16:14:45;5.45;;;2.80;;
39750;SDS011;37579;51.074;17.004;2023-03-07T16:19:47;5.38;;;2.83;;
39750;SDS011;37579;51.074;17.004;2023-03-07T16:22:13;4.88;;;2.90;;
39750;SDS011;37579;51.074;17.004;2023-03-07T16:24:41;5.57;;;2.97;;
39750;SDS011;37579;51.074;17.004;2023-03-07T16:27:10;5.28;;;2.80;;
39750;SDS011;37579;51.074;17.004;2023-03-07T16:29:42;4.70;;;3.08;;
39750;SDS011;37579;51.074;17.004;2023-03-07T16:32:09;4.45;;;3.03;;
39750;SDS011;37579;51.074;17.004;2023-03-07T16:34:37;5.57;;;2.55;;
39750;SDS011;37579;51.074;17.004;2023-03-07T16:37:03;6.68;;;3.65;;
39750;SDS011;37579;51.074;17.004;2023-03-07T16:39:29;3.95;;;2.88;;
39750;SDS011;37579;51.074;17.004;2023-03-07T16:41:55;3.42;;;2.30;;
39750;SDS011;37579;51.074;17.004;2023-03-07T16:44:21;4.85;;;2.95;;
39750;SDS011;37579;51.074;17.004;2023-03-07T16:47:04;6.57;;;2.83;;
39750;SDS011;37579;51.074;17.004;2023-03-07T16:49:33;5.22;;;2.95;;
39750;SDS011;37579;51.074;17.004;2023-03-07T16:51:59;4.43;;;2.47;;
39750;SDS011;37579;51.074;17.004;2023-03-07T16:54:25;11.80;;;3.15;;
39750;SDS011;37579;51.074;17.004;2023-03-07T16:56:51;7.10;;;3.67;;